Latest Weather Observations for Sydney Olympic Park

IDN60901

Issued at 3:41 pm EDT Sunday 29 November 2020 (issued every 10 minutes, with the page automatically refreshed every 10 minutes)

About weather observations | Map of Sydney area stations | Latest observations for Sydney area | Other Formats
Station Details ID: 066212 Name: SYDNEY OLYMPIC PARK AWS (ARCHERY CENTRE) Lat: -33.83 Lon: 151.07 Height: 4.0 m
Data from the previous 72 hours. | See also: Recent months at Sydney Olympic Park
Date/Time
EDT
Temp
°C
App
Temp
°C
Dew
Point
°C
Rel
Hum
%
Delta-T
°C
Wind Press
QNH
hPa
Press
MSL
hPa
Rain since
9am
mm
Dir  Spd
km/h
Gust
km/h
Spd
kts
Gust
kts
29/03:30pm 36.2 31.3 15.3 28 13.1 NW 35 57 19 31 - - 0.2
29/03:00pm 38.6 32.1 15.0 24 14.9 WNW 43 78 23 42 - - 0.2
29/02:30pm 39.7 34.2 14.7 23 15.7 WNW 37 67 20 36 - - 0.2
29/02:00pm 41.2 37.6 17.2 24 15.7 WNW 32 54 17 29 - - 0.2
29/01:30pm 40.7 35.9 15.5 23 16.1 WNW 35 56 19 30 - - 0.2
29/01:00pm 40.1 35.5 15.0 23 15.9 NW 33 65 18 35 - - 0.2
29/12:30pm 40.1 36.5 16.3 24 15.3 NW 30 61 16 33 - - 0.2
29/12:00pm 39.4 35.6 15.7 24 15.1 NW 30 54 16 29 - - 0.2
29/11:32am 38.4 34.4 14.2 23 15.1 NW 28 46 15 25 - - 0.2
29/11:30am 38.3 33.7 13.5 23 15.3 NW 30 46 16 25 - - 0.2
29/11:00am 37.8 33.5 14.4 25 14.6 NW 30 54 16 29 - - 0.2
29/10:37am 36.6 32.6 14.0 26 13.9 NW 28 59 15 32 - - 0.2
29/10:30am 36.8 33.0 13.5 24 14.3 NW 26 52 14 28 - - 0.2
29/10:01am 35.6 30.7 13.7 27 13.4 NW 32 50 17 27 - - 0.2
29/10:00am 35.5 30.4 13.6 26 13.4 NW 33 50 18 27 - - 0.2
29/09:49am 35.1 31.2 14.4 29 12.8 NW 28 52 15 28 - - 0.2
29/09:30am 33.5 31.3 15.9 34 11.0 NW 22 46 12 25 - - 0.0
29/09:00am 32.2 29.5 15.7 37 10.3 NW 24 44 13 24 - - 0.0
29/08:30am 31.4 29.0 14.5 35 10.3 NW 20 37 11 20 - - 0.0
29/08:00am 30.9 28.7 14.5 37 10.0 NW 19 33 10 18 - - 0.0
29/07:30am 30.2 29.1 14.3 38 9.6 NW 13 26 7 14 - - 0.0
29/07:00am 30.0 29.0 14.5 38 9.4 NW 13 24 7 13 - - 0.0
29/06:30am 30.2 28.3 14.3 38 9.6 NNW 17 28 9 15 - - 0.0
29/06:00am 30.3 29.1 14.0 37 9.8 NNW 13 24 7 13 - - 0.0
29/05:30am 30.3 29.5 15.2 40 9.3 NW 13 26 7 14 - - 0.0
29/05:00am 30.2 28.3 15.1 40 9.3 NNW 19 37 10 20 - - 0.0
29/04:30am 30.2 27.8 15.5 41 9.1 NW 22 46 12 25 - - 0.0
29/04:00am 29.5 27.5 15.6 43 8.6 NNW 20 32 11 17 - - 0.0
29/03:30am 29.8 28.8 15.5 42 8.8 NW 15 28 8 15 - - 0.0
29/03:00am 28.7 29.1 16.3 47 7.7 NW 9 17 5 9 - - 0.0
29/02:30am 28.3 28.1 16.6 49 7.3 NNW 13 20 7 11 - - 0.0
29/02:00am 25.1 27.2 20.1 74 3.2 NNW 9 11 5 6 - - 0.0
29/01:30am 25.4 28.7 20.0 72 3.5 SW 2 7 1 4 - - 0.0
29/01:00am 25.2 26.9 19.3 70 3.8 N 9 17 5 9 - - 0.0
29/12:30am 26.3 28.1 18.4 61 5.0 ENE 6 9 3 5 - - 0.0
29/12:00am 28.1 28.7 17.6 53 6.6 E 11 20 6 11 - - 0.0
 
Date/Time
EDT
Temp
°C
App
Temp
°C
Dew
Point
°C
Rel
Hum
%
Delta-T
°C
Wind Press
QNH
hPa
Press
MSL
hPa
Rain since
9am
mm
Dir  Spd
km/h
Gust
km/h
Spd
kts
Gust
kts
28/11:30pm 31.0 31.2 15.8 40 9.4 ENE 9 20 5 11 - - 0.0
28/11:00pm 33.1 33.0 13.2 30 12.0 N 6 15 3 8 - - 0.0
28/10:30pm 33.3 32.7 13.4 30 12.0 N 9 13 5 7 - - 0.0
28/10:00pm 33.5 33.3 13.5 29 12.1 NNW 7 13 4 7 - - 0.0
28/09:30pm 33.9 33.3 13.4 29 12.4 NNW 9 15 5 8 - - 0.0
28/09:00pm 32.6 32.2 14.2 32 11.2 N 9 11 5 6 - - 0.0
28/08:30pm 32.0 33.7 16.3 39 9.9 N 2 7 1 4 - - 0.0
28/08:00pm 32.3 33.2 16.2 38 10.1 N 6 7 3 4 - - 0.0
28/07:30pm 35.2 35.5 15.0 30 12.6 N 7 11 4 6 - - 0.0
28/07:00pm 36.3 36.7 15.4 28 13.1 N 7 11 4 6 - - 0.0
28/06:30pm 37.7 38.0 16.1 28 13.8 NNW 9 19 5 10 - - 0.0
28/06:00pm 38.2 36.3 14.1 24 15.0 NNW 17 24 9 13 - - 0.0
28/05:30pm 40.1 39.1 15.7 24 15.6 NNW 15 26 8 14 - - 0.0
28/05:00pm 40.1 37.4 13.6 21 16.5 NNW 20 37 11 20 - - 0.0
28/04:30pm 39.6 37.9 14.6 23 15.7 NNW 17 26 9 14 - - 0.0
28/04:00pm 40.7 38.2 14.1 21 16.7 NNW 20 35 11 19 - - 0.0
28/03:30pm 41.0 39.3 15.7 22 16.2 NW 19 30 10 16 - - 0.0
28/03:00pm 41.2 39.8 16.6 24 16.0 NW 19 30 10 16 - - 0.0
28/02:30pm 40.8 39.1 16.2 23 15.9 NW 20 35 11 19 - - 0.0
28/02:00pm 40.5 39.2 17.3 26 15.2 NNW 20 41 11 22 - - 0.0
28/01:30pm 40.3 37.8 15.2 23 15.9 NNW 22 37 12 20 - - 0.0
28/01:08pm 40.1 37.4 15.7 24 15.6 NNW 24 46 13 25 - - 0.0
28/01:00pm 39.9 38.4 16.8 26 15.0 NNW 20 35 11 19 - - 0.0
28/12:30pm 39.8 38.6 18.4 28 14.2 NW 22 41 12 22 - - 0.0
28/12:00pm 38.6 37.1 16.8 27 14.1 NW 20 30 11 16 - - 0.0
28/11:30am 38.3 38.1 17.7 30 13.4 NW 15 28 8 15 - - 0.0
28/11:00am 36.7 36.6 17.8 32 12.3 NW 15 28 8 15 - - 0.0
28/10:30am 35.7 34.9 17.9 35 11.6 NNW 19 26 10 14 - - 0.0
28/10:00am 35.1 36.8 20.2 41 10.0 NNW 11 24 6 13 - - 0.0
28/09:30am 33.3 35.6 19.4 44 9.2 N 6 20 3 11 - - 0.0
28/09:00am 29.8 34.5 22.0 63 5.3 CALM 0 0 0 0 - - 0.0
28/08:30am 26.7 30.7 20.5 69 4.1 CALM 0 6 0 3 - - 0.0
28/08:00am 24.4 28.1 19.9 76 2.9 CALM 0 0 0 0 - - 0.0
28/07:30am 22.7 26.5 20.2 86 1.6 CALM 0 6 0 3 - - 0.0
28/07:00am 21.5 24.7 21.3 99 0.1 NW 6 9 3 5 - - 0.0
28/06:30am 20.4 23.2 20.4 100 0.0 NW 6 7 3 4 - - 0.0
28/06:00am 19.7 23.2 19.5 99 0.1 CALM 0 0 0 0 - - 0.0
28/05:30am 19.4 22.7 19.2 99 0.1 CALM 0 0 0 0 - - 0.0
28/05:00am 19.2 22.5 19.0 99 0.1 CALM 0 0 0 0 - - 0.0
28/04:30am 19.5 22.9 19.3 99 0.1 CALM 0 0 0 0 - - 0.0
28/04:00am 19.9 23.5 19.7 99 0.1 CALM 0 0 0 0 - - 0.0
28/03:30am 19.8 23.2 19.3 97 0.3 CALM 0 0 0 0 - - 0.0
28/03:00am 20.1 23.7 19.8 98 0.2 CALM 0 0 0 0 - - 0.0
28/02:30am 20.2 23.9 19.9 98 0.2 CALM 0 0 0 0 - - 0.0
28/02:00am 20.2 23.6 19.4 95 0.5 CALM 0 0 0 0 - - 0.0
28/01:30am 20.6 24.2 19.8 95 0.5 CALM 0 0 0 0 - - 0.0
28/01:00am 20.6 24.2 19.8 95 0.5 CALM 0 0 0 0 - - 0.0
28/12:30am 20.7 24.2 19.5 93 0.8 CALM 0 0 0 0 - - 0.0
28/12:00am 21.0 24.5 19.5 91 1.0 CALM 0 0 0 0 - - 0.0
 
Date/Time
EDT
Temp
°C
App
Temp
°C
Dew
Point
°C
Rel
Hum
%
Delta-T
°C
Wind Press
QNH
hPa
Press
MSL
hPa
Rain since
9am
mm
Dir  Spd
km/h
Gust
km/h
Spd
kts
Gust
kts
27/11:30pm 21.3 24.6 19.2 88 1.3 CALM 0 0 0 0 - - 0.0
27/11:00pm 21.5 24.8 19.2 87 1.5 CALM 0 0 0 0 - - 0.0
27/10:30pm 22.0 25.2 18.8 82 2.0 CALM 0 0 0 0 - - 0.0
27/10:00pm 22.4 24.9 19.0 81 2.2 N 4 7 2 4 - - 0.0
27/09:30pm 22.6 24.6 18.8 79 2.4 NNW 6 9 3 5 - - 0.0
27/09:00pm 22.9 25.6 18.7 77 2.7 ENE 2 9 1 5 - - 0.0
27/08:30pm 22.9 24.6 18.4 76 2.8 NE 7 15 4 8 - - 0.0
27/08:00pm 23.3 24.5 18.2 73 3.2 ENE 9 17 5 9 - - 0.0
27/07:30pm 23.8 24.6 18.2 71 3.5 E 11 19 6 10 - - 0.0
27/07:00pm 24.4 25.5 18.1 68 4.0 E 9 15 5 8 - - 0.0
27/06:30pm 24.9 25.0 18.4 67 4.1 E 15 22 8 12 - - 0.0
27/06:00pm 25.3 24.4 18.2 64 4.5 E 20 28 11 15 - - 0.0
27/05:30pm 26.0 25.4 18.4 63 4.8 E 19 26 10 14 - - 0.0
27/05:00pm 26.5 27.1 18.6 62 5.0 E 13 20 7 11 - - 0.0
27/04:30pm 27.0 26.6 18.8 60 5.3 E 19 26 10 14 - - 0.0
27/04:00pm 26.7 25.9 18.0 59 5.5 E 19 24 10 13 - - 0.0
27/03:30pm 26.2 25.1 17.8 60 5.3 ESE 20 28 11 15 - - 0.0
27/03:00pm 27.1 27.4 18.7 60 5.4 E 15 20 8 11 - - 0.0
27/02:30pm 26.2 25.1 17.8 60 5.3 ESE 20 28 11 15 - - 0.0
27/02:00pm 26.9 27.0 17.4 56 6.0 E 13 20 7 11 - - 0.0
27/01:30pm 26.4 25.6 17.2 57 5.7 E 17 26 9 14 - - 0.0
27/01:00pm 28.0 29.0 17.8 54 6.5 NE 9 15 5 8 - - 0.0
27/12:30pm 27.1 27.8 17.0 54 6.3 NNE 9 15 5 8 - - 0.0
27/12:00pm 25.3 25.6 15.9 56 5.7 E 9 11 5 6 - - 0.0
27/11:30am 24.9 25.7 15.8 57 5.5 NE 6 11 3 6 - - 0.0
27/11:00am 23.8 24.6 15.8 61 4.8 NW 6 15 3 8 - - 0.0
27/10:30am 23.2 24.2 15.3 61 4.7 SSW 4 9 2 5 - - 0.0
27/10:00am 22.6 23.5 15.0 62 4.5 ENE 4 9 2 5 - - 0.0
27/09:30am 21.8 23.0 14.9 65 4.1 NW 2 7 1 4 - - 0.0
27/09:00am 20.7 21.9 13.9 65 3.9 CALM 0 4 0 2 - - 0.0
27/08:30am 20.7 21.6 14.1 66 3.8 SW 2 9 1 5 - - 0.0
27/08:00am 19.7 19.8 13.9 69 3.3 SSW 6 11 3 6 - - 0.0
27/07:30am 19.5 20.4 13.9 70 3.2 SW 2 7 1 4 - - 0.0
27/07:00am 19.0 18.9 13.4 70 3.2 SW 6 13 3 7 - - 0.0
27/06:30am 18.8 18.2 13.4 71 3.1 SSW 9 13 5 7 - - 0.0
27/06:00am 18.6 18.2 13.0 70 3.2 SSW 7 11 4 6 - - 0.0
27/05:30am 18.6 17.8 12.8 69 3.3 SSW 9 15 5 8 - - 0.0
27/05:00am 18.7 17.5 12.7 68 3.4 SSW 11 17 6 9 - - 0.0
27/04:30am 18.8 17.6 12.8 68 3.4 S 11 17 6 9 - - 0.0
27/04:00am 19.0 17.9 13.2 69 3.3 S 11 17 6 9 - - 0.0
27/03:30am 19.1 18.4 13.3 69 3.3 SSW 9 20 5 11 - - 0.0
27/03:00am 19.1 18.4 13.1 68 3.4 SSW 9 13 5 7 - - 0.0
27/02:30am 19.0 18.1 12.7 67 3.5 SSW 9 20 5 11 - - 0.0
27/02:00am 19.3 17.3 12.8 66 3.7 S 15 26 8 14 - - 0.0
27/01:30am 19.6 18.0 14.0 70 3.2 S 15 26 8 14 - - 0.0
27/01:00am 19.7 18.7 14.7 73 2.9 S 13 26 7 14 - - 0.0
27/12:30am 19.9 18.9 15.5 76 2.6 S 15 22 8 12 - - 0.0
27/12:00am 20.2 18.4 15.4 74 2.8 S 19 30 10 16 - - 0.0
 
Date/Time
EDT
Temp
°C
App
Temp
°C
Dew
Point
°C
Rel
Hum
%
Delta-T
°C
Wind Press
QNH
hPa
Press
MSL
hPa
Rain since
9am
mm
Dir  Spd
km/h
Gust
km/h
Spd
kts
Gust
kts
26/11:30pm 20.3 18.7 16.1 77 2.5 S 19 37 10 20 - - 0.0
26/11:00pm 20.5 18.5 16.5 78 2.4 S 22 39 12 21 - - 0.0
26/10:30pm 20.7 19.4 16.7 78 2.4 SSE 19 32 10 17 - - 0.0
26/10:00pm 21.2 19.7 17.6 80 2.2 S 22 37 12 20 - - 0.0
26/09:30pm 21.6 20.6 18.0 80 2.2 SSE 20 37 11 20 - - 0.0
26/09:00pm 22.0 21.1 18.2 79 2.4 SSE 20 35 11 19 - - 0.0
26/08:30pm 23.3 21.8 17.7 71 3.5 SSE 22 33 12 18 - - 0.0
26/08:00pm 24.8 25.2 16.2 58 5.3 SE 9 11 5 6 - - 0.0
26/07:30pm 25.9 25.5 16.2 55 5.9 ESE 13 17 7 9 - - 0.0
26/07:00pm 28.6 27.6 15.5 45 8.0 E 15 24 8 13 - - 0.0
26/06:30pm 29.3 28.5 16.1 44 8.2 ESE 15 20 8 11 - - 0.0
26/06:00pm 30.7 30.4 15.5 39 9.4 E 11 17 6 9 - - 0.0
26/05:30pm 31.0 30.3 15.4 38 9.6 ENE 13 19 7 10 - - 0.0
26/05:00pm 31.2 30.4 15.2 38 9.9 E 13 20 7 11 - - 0.0
26/04:30pm 32.5 31.5 14.6 34 11.0 NE 13 22 7 12 - - 0.0
26/04:00pm 32.0 31.0 15.5 37 10.2 E 15 22 8 12 - - 0.0

Latest Capital City Observations: Canberra | Sydney | Melbourne | Brisbane | Adelaide | Perth | Hobart | Darwin

Other formats

Comma delimited format used in spreadsheet applications
http://www.bom.gov.au/fwo/IDN60901/IDN60901.95765.axf

JavaScript Object Notation format (JSON) in row-major order
http://www.bom.gov.au/fwo/IDN60901/IDN60901.95765.json

Data quality

Most of these data are generated automatically and are frequently updated. Quality checks on data are not normally performed. It is possible for incorrect values to appear. Refer to information at About Latest Weather Observations and please check the disclaimer before using these data.